createdAt,value
2022-11-01T00:01:08.890Z,21.10
2022-11-01T00:03:35.825Z,28.00
2022-11-01T00:06:03.271Z,28.20
2022-11-01T00:08:30.072Z,29.40
2022-11-01T00:11:09.830Z,29.10
2022-11-01T00:13:36.507Z,18.20
2022-11-01T00:16:03.317Z,26.40
2022-11-01T00:18:30.057Z,32.00
2022-11-01T00:20:56.734Z,30.90
2022-11-01T00:23:23.377Z,25.90
2022-11-01T00:25:50.248Z,24.30
2022-11-01T00:28:16.964Z,18.00
2022-11-01T00:30:43.747Z,24.70
2022-11-01T00:33:10.640Z,14.50
2022-11-01T00:35:37.531Z,34.30
2022-11-01T00:38:05.694Z,15.80
2022-11-01T00:40:32.614Z,32.10
2022-11-01T00:42:59.454Z,24.80
2022-11-01T00:45:26.378Z,25.50
2022-11-01T00:47:53.416Z,34.90
2022-11-01T00:50:20.154Z,32.40
2022-11-01T00:52:46.975Z,37.80
2022-11-01T00:55:13.779Z,16.20
2022-11-01T00:57:40.448Z,30.90
2022-11-01T01:00:07.999Z,31.20
2022-11-01T01:02:34.823Z,32.90
2022-11-01T01:05:01.491Z,31.30
2022-11-01T01:07:28.245Z,38.40
2022-11-01T01:09:54.880Z,18.00
2022-11-01T01:12:21.604Z,24.60
2022-11-01T01:14:48.197Z,15.80
2022-11-01T01:17:15.171Z,35.90
2022-11-01T01:19:41.825Z,36.70
2022-11-01T01:22:08.632Z,27.10
2022-11-01T01:24:35.601Z,22.70
2022-11-01T01:27:03.027Z,16.20
2022-11-01T01:29:30.026Z,27.60
2022-11-01T01:31:56.948Z,28.20
2022-11-01T01:34:23.774Z,22.80
2022-11-01T01:36:50.436Z,23.20
2022-11-01T01:39:17.085Z,20.30
2022-11-01T01:41:55.884Z,31.20
2022-11-01T01:44:51.124Z,11.60
2022-11-01T01:47:22.742Z,37.80
2022-11-01T01:49:55.082Z,22.40
2022-11-01T01:52:22.324Z,24.00
2022-11-01T01:54:50.669Z,26.50
2022-11-01T01:57:18.657Z,28.60
2022-11-01T01:59:45.799Z,13.80
2022-11-01T02:02:13.967Z,46.20
2022-11-01T02:04:47.437Z,28.70
2022-11-01T02:07:14.635Z,18.50
2022-11-01T02:09:42.661Z,35.00
2022-11-01T02:12:12.610Z,41.80
2022-11-01T02:14:41.748Z,35.40
2022-11-01T02:17:42.023Z,24.30
2022-11-01T02:20:34.465Z,24.60
2022-11-01T02:23:06.981Z,20.00
2022-11-01T02:26:01.632Z,28.60
2022-11-01T02:28:53.695Z,11.60
2022-11-01T02:31:39.257Z,28.30
2022-11-01T02:34:17.960Z,25.30
2022-11-01T02:37:01.967Z,25.40
2022-11-01T02:39:34.503Z,23.20
2022-11-01T02:42:05.849Z,18.30
2022-11-01T02:44:36.959Z,19.60
2022-11-01T02:47:05.539Z,22.00
2022-11-01T02:49:36.499Z,11.10
2022-11-01T02:52:05.924Z,27.10
2022-11-01T02:54:38.949Z,25.40
2022-11-01T02:57:29.238Z,11.20
2022-11-01T03:00:02.767Z,28.70
2022-11-01T03:02:39.602Z,13.20
2022-11-01T03:05:26.906Z,20.00
2022-11-01T03:08:03.654Z,13.70
2022-11-01T03:11:05.695Z,17.90
2022-11-01T03:13:51.933Z,11.20
2022-11-01T03:16:56.705Z,27.40
2022-11-01T03:19:39.139Z,12.80
2022-11-01T03:22:47.359Z,15.30
2022-11-01T03:25:39.075Z,20.20
2022-11-01T03:28:17.055Z,14.50
2022-11-01T03:30:52.134Z,27.40
2022-11-01T03:33:21.321Z,30.10
2022-11-01T03:35:51.338Z,32.20
2022-11-01T03:38:23.630Z,12.80
2022-11-01T03:40:56.001Z,32.30
2022-11-01T03:43:25.836Z,16.60
2022-11-01T03:45:54.230Z,26.90
2022-11-01T03:48:21.063Z,15.50
2022-11-01T03:50:50.382Z,38.70
2022-11-01T03:53:17.619Z,53.70
2022-11-01T03:55:44.853Z,47.30
2022-11-01T03:58:11.738Z,50.00
2022-11-01T04:00:44.517Z,40.90
2022-11-01T04:03:12.285Z,37.80
2022-11-01T04:05:40.907Z,41.60
2022-11-01T04:08:09.507Z,21.60
2022-11-01T04:10:36.382Z,56.70
2022-11-01T04:13:04.180Z,51.00
2022-11-01T04:15:49.896Z,64.40
2022-11-01T04:18:44.393Z,53.90
2022-11-01T04:21:14.537Z,29.40
2022-11-01T04:23:42.717Z,26.70
2022-11-01T04:26:18.434Z,72.00
2022-11-01T04:28:56.122Z,30.50
2022-11-01T04:31:24.105Z,41.30
2022-11-01T04:33:50.886Z,25.00
2022-11-01T04:36:18.115Z,38.00
2022-11-01T04:38:47.599Z,20.80
2022-11-01T04:41:17.833Z,35.10
2022-11-01T04:43:46.752Z,16.80
2022-11-01T04:46:13.571Z,29.10
2022-11-01T04:48:40.940Z,33.40
2022-11-01T04:51:08.629Z,29.50
2022-11-01T04:53:35.907Z,16.50
2022-11-01T04:56:05.093Z,29.00
2022-11-01T04:58:33.980Z,23.80
2022-11-01T05:01:07.950Z,13.80
2022-11-01T05:03:35.213Z,22.20
2022-11-01T05:06:01.950Z,12.60
2022-11-01T05:08:28.694Z,19.00
2022-11-01T05:10:56.152Z,11.40
2022-11-01T05:13:22.924Z,15.40
2022-11-01T05:16:06.449Z,25.30
2022-11-01T05:18:36.392Z,14.10
2022-11-01T05:21:03.299Z,21.10
2022-11-01T05:23:30.001Z,21.60
2022-11-01T05:25:56.723Z,20.10
2022-11-01T05:28:23.439Z,22.40
2022-11-01T05:30:50.244Z,14.50
2022-11-01T05:33:16.927Z,15.90
2022-11-01T05:35:43.552Z,10.40
2022-11-01T05:38:10.421Z,24.20
2022-11-01T05:40:37.201Z,9.90
2022-11-01T05:43:04.275Z,13.20
2022-11-01T05:45:31.347Z,14.20
2022-11-01T05:48:05.162Z,16.00
2022-11-01T05:50:32.021Z,35.20
2022-11-01T05:53:29.735Z,33.10
2022-11-01T05:56:03.642Z,28.30
2022-11-01T05:58:34.537Z,28.80
2022-11-01T06:01:06.707Z,43.20
2022-11-01T06:03:38.787Z,27.60
2022-11-01T06:06:06.602Z,10.30
2022-11-01T06:08:36.312Z,16.00
2022-11-01T06:11:06.683Z,22.60
2022-11-01T06:13:37.279Z,29.40
2022-11-01T06:18:38.021Z,9.80
2022-11-01T06:21:07.149Z,10.90
2022-11-01T06:23:37.624Z,25.10
2022-11-01T06:26:10.424Z,14.20
2022-11-01T06:29:03.647Z,23.20
2022-11-01T06:31:34.410Z,10.20
2022-11-01T06:34:08.356Z,9.40
2022-11-01T09:24:16.150Z,15.20
2022-11-01T09:26:54.660Z,13.70
2022-11-01T09:29:37.236Z,15.70
2022-11-01T09:32:16.769Z,13.30
2022-11-01T09:34:50.028Z,13.60
2022-11-01T09:37:17.468Z,15.90
2022-11-01T09:39:45.458Z,18.50
2022-11-01T09:42:45.666Z,11.60
2022-11-01T09:45:23.788Z,18.20
2022-11-01T09:48:13.298Z,16.20
2022-11-01T09:50:43.424Z,20.90
2022-11-01T09:53:20.683Z,15.00
2022-11-01T09:56:00.100Z,14.70
2022-11-01T09:59:01.281Z,15.40
2022-11-01T10:01:42.965Z,12.60
2022-11-01T10:05:18.760Z,20.10
2022-11-01T10:08:33.529Z,22.30
2022-11-01T10:11:27.813Z,24.80
2022-11-01T10:14:06.957Z,38.30
2022-11-01T10:17:00.818Z,16.50
2022-11-01T10:19:33.497Z,17.30
2022-11-01T10:25:56.034Z,17.10
2022-11-01T10:29:30.562Z,13.30
2022-11-01T10:33:04.218Z,15.30
2022-11-01T10:35:40.474Z,13.10
2022-11-01T10:38:49.642Z,14.40
2022-11-01T10:41:38.916Z,14.50
2022-11-01T10:44:46.080Z,14.80
2022-11-01T10:47:20.963Z,15.90
2022-11-01T10:50:12.009Z,13.60
2022-11-01T10:52:56.161Z,16.20
2022-11-01T10:55:44.638Z,22.80
2022-11-01T10:58:39.427Z,17.40
2022-11-01T11:01:10.363Z,35.00
2022-11-01T11:03:41.016Z,22.20
2022-11-01T11:06:18.069Z,32.70
2022-11-01T11:08:54.530Z,46.20
2022-11-01T11:11:35.000Z,28.80
2022-11-01T11:14:08.706Z,29.10
2022-11-01T11:16:54.626Z,30.30
2022-11-01T11:19:33.675Z,34.40
2022-11-01T11:22:43.272Z,20.80
2022-11-01T11:26:30.340Z,13.90
2022-11-01T11:29:54.126Z,17.40
2022-11-01T11:40:03.767Z,16.00
2022-11-01T11:42:43.868Z,21.80
2022-11-01T11:45:32.917Z,14.80
2022-11-01T11:48:21.136Z,19.20
2022-11-01T11:51:00.893Z,16.60
2022-11-01T11:53:32.832Z,18.10
2022-11-01T11:56:06.460Z,27.00
2022-11-01T11:58:49.529Z,25.40
2022-11-01T12:01:34.970Z,23.20
2022-11-01T12:04:07.009Z,22.40
2022-11-01T12:06:40.913Z,24.00
2022-11-01T12:09:36.830Z,21.80
2022-11-01T12:12:26.124Z,17.10
2022-11-01T12:14:54.382Z,18.40
2022-11-01T12:17:35.953Z,18.80
2022-11-01T12:20:20.814Z,20.70
2022-11-01T12:23:07.565Z,22.50
2022-11-01T12:25:36.877Z,20.20
2022-11-01T12:28:18.807Z,20.40
2022-11-01T12:30:50.300Z,23.30
2022-11-01T12:33:27.259Z,16.80
2022-11-01T12:35:54.374Z,17.60
2022-11-01T12:38:49.528Z,17.00
2022-11-01T12:43:44.410Z,15.10
2022-11-01T12:46:52.615Z,20.40
2022-11-01T12:49:46.645Z,17.40
2022-11-01T12:52:34.259Z,15.40
2022-11-01T12:55:07.108Z,19.10
2022-11-01T12:57:34.826Z,21.10
2022-11-01T13:00:02.194Z,19.30
2022-11-01T13:02:36.495Z,17.20
2022-11-01T13:05:12.657Z,13.60
2022-11-01T13:08:07.898Z,15.90
2022-11-01T13:13:33.175Z,16.00
2022-11-01T13:16:08.823Z,15.00
2022-11-01T13:18:44.029Z,14.60
2022-11-01T13:21:28.855Z,14.70
2022-11-01T13:24:33.525Z,16.00
2022-11-01T13:27:09.554Z,16.70
2022-11-01T13:29:53.128Z,14.80
2022-11-01T13:32:38.820Z,13.00
2022-11-01T13:35:13.787Z,13.00
2022-11-01T13:37:48.668Z,13.20
2022-11-01T13:40:34.136Z,12.50
2022-11-01T13:43:09.831Z,18.30
2022-11-01T13:46:02.674Z,12.70
2022-11-01T13:48:44.884Z,15.80
2022-11-01T13:51:32.261Z,15.50
2022-11-01T13:54:38.892Z,13.80
2022-11-01T13:57:17.180Z,15.30
2022-11-01T13:59:59.697Z,15.40
2022-11-01T14:02:26.608Z,14.00
2022-11-01T14:05:13.275Z,21.90
2022-11-01T14:07:43.588Z,24.30
2022-11-01T14:10:22.202Z,19.00
2022-11-01T14:13:10.217Z,23.50
2022-11-01T14:15:58.736Z,21.00
2022-11-01T14:18:26.867Z,22.50
2022-11-01T14:20:55.029Z,28.40
2022-11-01T14:23:28.083Z,24.60
2022-11-01T14:26:19.705Z,22.90
2022-11-01T14:28:50.613Z,24.80
2022-11-01T14:31:21.643Z,23.10
2022-11-01T14:33:51.720Z,25.00
2022-11-01T14:36:27.018Z,22.60
2022-11-01T14:39:08.757Z,25.30
2022-11-01T14:41:40.332Z,23.50
2022-11-01T14:44:35.138Z,25.40
2022-11-01T14:47:14.802Z,25.90
2022-11-01T14:49:44.941Z,26.50
2022-11-01T14:52:40.746Z,26.90
2022-11-01T14:55:18.991Z,28.30
2022-11-01T14:57:47.875Z,27.10
2022-11-01T15:00:31.342Z,28.40
2022-11-01T15:05:31.876Z,35.50
2022-11-01T15:07:59.184Z,38.80
2022-11-01T15:10:27.351Z,33.80
2022-11-01T15:12:58.047Z,35.40
2022-11-01T15:15:31.547Z,30.10
2022-11-01T15:18:02.358Z,36.70
2022-11-01T15:20:36.249Z,38.30
2022-11-01T15:23:44.013Z,46.20
2022-11-01T15:26:15.063Z,38.80
2022-11-01T15:28:47.412Z,37.50
2022-11-01T15:31:14.530Z,54.60
2022-11-01T15:34:00.223Z,69.40
2022-11-01T15:36:33.333Z,73.00
2022-11-01T15:39:04.097Z,39.20
2022-11-01T15:41:33.072Z,35.90
2022-11-01T15:44:05.692Z,49.90
2022-11-01T15:46:37.556Z,120.60
2022-11-01T15:49:08.832Z,87.00
2022-11-01T15:51:46.020Z,48.70
2022-11-01T15:54:32.515Z,35.00
2022-11-01T15:57:04.868Z,39.60
2022-11-01T15:59:48.881Z,49.80
2022-11-01T16:02:24.195Z,86.50
2022-11-01T16:04:51.420Z,106.80
2022-11-01T16:07:21.144Z,100.50
2022-11-01T16:09:53.099Z,43.70
2022-11-01T16:12:23.334Z,54.40
2022-11-01T16:14:59.716Z,34.00
2022-11-01T16:17:39.857Z,82.50
2022-11-01T16:20:28.738Z,49.50
2022-11-01T16:22:58.152Z,56.80
2022-11-01T16:25:26.918Z,69.00
2022-11-01T16:27:59.367Z,68.80
2022-11-01T16:30:37.461Z,72.70
2022-11-01T16:33:47.463Z,66.70
2022-11-01T16:38:51.883Z,64.40
2022-11-01T16:41:22.538Z,74.50
2022-11-01T16:43:58.557Z,76.60
2022-11-01T16:46:27.486Z,48.90
2022-11-01T16:49:15.839Z,107.30
2022-11-01T16:51:42.501Z,179.00
2022-11-01T16:54:15.160Z,114.00
2022-11-01T16:56:48.168Z,114.10
2022-11-01T16:59:26.011Z,72.20
2022-11-01T17:01:56.956Z,55.80
2022-11-01T17:04:26.306Z,29.20
2022-11-01T17:06:55.215Z,38.40
2022-11-01T17:09:22.174Z,84.10
2022-11-01T17:11:51.524Z,45.70
2022-11-01T17:14:20.702Z,52.70
2022-11-01T17:16:49.556Z,65.40
2022-11-01T17:19:30.780Z,57.50
2022-11-01T17:22:01.468Z,56.30
2022-11-01T17:24:29.446Z,50.30
2022-11-01T17:26:59.958Z,72.70
2022-11-01T17:29:28.786Z,49.20
2022-11-01T17:31:55.494Z,48.30
2022-11-01T17:34:23.852Z,38.60
2022-11-01T17:36:50.963Z,52.10
2022-11-01T17:39:17.727Z,47.90
2022-11-01T17:41:44.941Z,53.50
2022-11-01T17:44:12.217Z,60.30
2022-11-01T17:46:39.751Z,69.60
2022-11-01T17:49:06.663Z,89.50
2022-11-01T17:51:33.645Z,71.90
2022-11-01T17:54:00.442Z,66.20
2022-11-01T17:56:27.156Z,74.70
2022-11-01T17:58:53.988Z,63.20
2022-11-01T18:01:21.090Z,62.70
2022-11-01T18:03:48.692Z,54.30
2022-11-01T18:06:16.462Z,53.80
2022-11-01T18:08:49.168Z,51.40
2022-11-01T18:11:45.490Z,52.90
2022-11-01T18:14:21.761Z,39.00
2022-11-01T18:16:53.952Z,32.50
2022-11-01T18:19:23.475Z,34.10
2022-11-01T18:21:56.241Z,32.00
2022-11-01T18:24:34.831Z,176.20
2022-11-01T18:27:08.614Z,52.60
2022-11-01T18:29:39.960Z,43.50
2022-11-01T18:32:31.463Z,44.70
2022-11-01T18:35:05.026Z,41.60
2022-11-01T18:37:34.693Z,43.60
2022-11-01T18:40:24.152Z,38.10
2022-11-01T18:42:52.457Z,77.00
2022-11-01T18:45:25.551Z,80.30
2022-11-01T18:48:01.696Z,63.20
2022-11-01T18:50:28.955Z,58.20
2022-11-01T18:53:17.261Z,62.90
2022-11-01T18:55:48.789Z,55.00
2022-11-01T18:58:27.019Z,55.60
2022-11-01T19:01:17.274Z,53.20
2022-11-01T19:03:45.295Z,69.90
2022-11-01T19:06:13.027Z,75.20
2022-11-01T19:08:39.840Z,89.60
2022-11-01T19:11:11.863Z,69.30
2022-11-01T19:19:02.450Z,89.90
2022-11-01T19:21:35.061Z,120.00
2022-11-01T19:24:10.196Z,110.60
2022-11-01T19:26:41.275Z,94.40
2022-11-01T19:29:16.267Z,103.50
2022-11-01T19:31:44.767Z,107.20
2022-11-01T19:34:23.624Z,97.30
2022-11-01T19:36:52.216Z,118.40
2022-11-01T19:39:26.365Z,100.20
2022-11-01T19:41:57.713Z,137.20
2022-11-01T19:44:25.928Z,133.40
2022-11-01T19:46:59.535Z,102.90
2022-11-01T19:49:30.330Z,113.40
2022-11-01T19:52:49.355Z,134.00
2022-11-01T19:55:46.127Z,115.00
2022-11-01T19:58:21.897Z,141.60
2022-11-01T20:00:49.164Z,127.90
2022-11-01T20:03:38.811Z,136.90
2022-11-01T20:06:28.970Z,113.40
2022-11-01T20:09:19.120Z,92.50
2022-11-01T20:11:45.914Z,80.80
2022-11-01T20:14:13.366Z,88.40
2022-11-01T20:16:40.749Z,96.40
2022-11-01T20:19:08.384Z,93.00
2022-11-01T20:21:36.154Z,93.60
2022-11-01T20:24:03.529Z,93.20
2022-11-01T20:26:30.533Z,104.20
2022-11-01T20:28:57.681Z,87.00
2022-11-01T20:31:26.163Z,94.90
2022-11-01T20:33:53.921Z,88.30
2022-11-01T20:36:21.695Z,90.80
2022-11-01T20:38:48.929Z,95.60
2022-11-01T20:41:15.938Z,74.70
2022-11-01T20:43:42.868Z,85.40
2022-11-01T20:46:09.975Z,71.20
2022-11-01T20:48:36.765Z,74.50
2022-11-01T20:51:04.087Z,47.10
2022-11-01T20:53:31.391Z,54.70
2022-11-01T20:55:58.239Z,54.60
2022-11-01T20:58:26.266Z,54.50
2022-11-01T21:00:53.638Z,51.30
2022-11-01T21:03:21.768Z,44.60
2022-11-01T21:05:49.359Z,35.20
2022-11-01T21:08:23.451Z,37.40
2022-11-01T21:10:56.938Z,50.40
2022-11-01T21:13:29.545Z,35.50
2022-11-01T21:15:58.575Z,51.30
2022-11-01T21:18:35.571Z,67.10
2022-11-01T21:21:31.814Z,57.80
2022-11-01T21:24:00.561Z,36.80
2022-11-01T21:26:35.378Z,37.10
2022-11-01T21:29:15.540Z,54.30
2022-11-01T21:31:42.619Z,30.50
2022-11-01T21:34:09.484Z,27.60
2022-11-01T21:36:47.092Z,35.80
2022-11-01T21:39:18.172Z,49.60
2022-11-01T21:41:53.839Z,30.20
2022-11-01T21:44:41.033Z,52.00
2022-11-01T21:47:28.837Z,42.70
2022-11-01T21:49:56.280Z,52.10
2022-11-01T21:52:23.525Z,31.40
2022-11-01T21:54:52.049Z,38.60
2022-11-01T21:57:19.432Z,30.30
2022-11-01T21:59:46.706Z,48.40
2022-11-01T22:02:15.105Z,25.50
2022-11-01T22:04:43.442Z,40.00
2022-11-01T22:07:11.098Z,44.50
2022-11-01T22:09:37.887Z,25.40
2022-11-01T22:12:06.184Z,37.10
2022-11-01T22:14:33.336Z,63.80
2022-11-01T22:17:00.556Z,32.20
2022-11-01T22:19:27.315Z,24.60
2022-11-01T22:21:54.315Z,62.80
2022-11-01T22:24:21.147Z,62.20
2022-11-01T22:26:47.826Z,29.70
2022-11-01T22:29:14.517Z,34.30
2022-11-01T22:31:41.224Z,28.20
2022-11-01T22:34:07.922Z,37.30
2022-11-01T22:36:36.042Z,18.80
2022-11-01T22:39:18.205Z,25.30
2022-11-01T22:41:45.066Z,28.70
2022-11-01T22:44:14.430Z,17.40
2022-11-01T22:46:58.274Z,26.80
2022-11-01T22:49:32.137Z,32.30
2022-11-01T22:52:12.260Z,57.70
2022-11-01T22:54:46.987Z,64.80
2022-11-01T22:57:26.657Z,29.30
2022-11-01T22:59:57.072Z,43.00
2022-11-01T23:02:38.370Z,25.50
2022-11-01T23:05:07.953Z,22.80
2022-11-01T23:07:42.482Z,36.70
2022-11-01T23:10:21.533Z,40.00
2022-11-01T23:13:10.779Z,35.00
2022-11-01T23:15:37.527Z,32.50
2022-11-01T23:18:13.136Z,16.90
2022-11-01T23:20:40.761Z,15.50
2022-11-01T23:23:17.573Z,33.50
2022-11-01T23:25:44.710Z,22.20
2022-11-01T23:28:12.658Z,16.70
2022-11-01T23:30:41.732Z,14.70
2022-11-01T23:33:12.940Z,22.60
2022-11-01T23:35:40.258Z,11.90
2022-11-01T23:38:25.103Z,29.70
2022-11-01T23:43:23.764Z,13.50
2022-11-01T23:45:51.694Z,13.10
2022-11-01T23:48:20.963Z,14.00
2022-11-01T23:50:50.230Z,20.60
2022-11-01T23:53:19.516Z,18.90
2022-11-01T23:55:50.088Z,16.50
2022-11-01T23:58:23.889Z,14.30
